createdAt,value
2022-11-20T00:00:05.736Z,19.8
2022-11-20T00:02:11.221Z,19
2022-11-20T00:04:16.498Z,21
2022-11-20T00:06:21.898Z,19
2022-11-20T00:08:27.299Z,19.3
2022-11-20T00:10:32.693Z,19.6
2022-11-20T00:12:38.075Z,18.9
2022-11-20T00:14:46.553Z,21.6
2022-11-20T00:16:51.945Z,18.7
2022-11-20T00:18:57.327Z,19.3
2022-11-20T00:21:02.689Z,17.4
2022-11-20T00:23:08.104Z,17.3
2022-11-20T00:25:13.461Z,20.4
2022-11-20T00:27:18.851Z,18.4
2022-11-20T00:29:27.327Z,18.6
2022-11-20T00:31:32.708Z,19.1
2022-11-20T00:33:38.080Z,17.9
2022-11-20T00:36:09.585Z,20.7
2022-11-20T00:38:14.953Z,17.5
2022-11-20T00:40:20.323Z,21
2022-11-20T00:42:28.814Z,23.9
2022-11-20T00:44:34.200Z,20.9
2022-11-20T00:46:39.584Z,20.7
2022-11-20T00:48:44.979Z,18.3
2022-11-20T00:50:50.346Z,18.8
2022-11-20T00:52:55.721Z,17.8
2022-11-20T00:57:09.575Z,18.5
2022-11-20T00:59:14.939Z,19.3
2022-11-20T01:01:20.509Z,18.6
2022-11-20T01:03:27.256Z,18
2022-11-20T01:05:31.099Z,17.2
2022-11-20T01:09:41.849Z,18.9
2022-11-20T01:11:50.287Z,17.2
2022-11-20T01:13:55.651Z,17.1
2022-11-20T01:16:01.042Z,17.6
2022-11-20T01:18:06.394Z,18.6
2022-11-20T01:20:11.746Z,15.7
2022-11-20T01:22:17.104Z,16
2022-11-20T01:24:22.496Z,14.9
2022-11-20T01:26:30.932Z,17.9
2022-11-20T01:28:36.316Z,17.8
2022-11-20T01:31:45.889Z,20.5
2022-11-20T01:33:51.239Z,17.3
2022-11-20T01:35:56.587Z,15.2
2022-11-20T01:38:01.962Z,14.8
2022-11-20T01:40:10.428Z,18
2022-11-20T01:42:15.770Z,16.2
2022-11-20T01:44:21.145Z,11.9
2022-11-20T01:46:26.491Z,12.4
2022-11-20T01:48:31.823Z,11.4
2022-11-20T01:50:37.217Z,11.9
2022-11-20T01:52:42.540Z,11
2022-11-20T02:01:07.057Z,10.4
2022-11-20T02:05:17.756Z,13.4
2022-11-20T02:09:31.518Z,13.2
2022-11-20T02:11:36.858Z,12.6
2022-11-20T02:15:47.537Z,12
2022-11-20T02:19:58.239Z,13
2022-11-20T02:22:03.568Z,13.4
2022-11-20T02:24:12.052Z,14.8
2022-11-20T02:26:17.511Z,15.9
2022-11-20T02:28:22.698Z,13.8
2022-11-20T02:31:32.273Z,12.9
2022-11-20T02:33:37.630Z,11.3
2022-11-20T02:37:51.409Z,15.1
2022-11-20T02:42:02.086Z,12.1
2022-11-20T02:44:07.432Z,14.4
2022-11-20T02:48:18.128Z,10.8
2022-11-20T02:52:31.942Z,18
2022-11-20T02:54:37.269Z,16.4
2022-11-20T02:56:42.678Z,14.3
2022-11-20T02:58:47.923Z,14.5
2022-11-20T03:00:53.390Z,12
2022-11-20T03:02:58.628Z,12.1
2022-11-20T03:05:03.957Z,13.7
2022-11-20T03:07:12.484Z,17.3
2022-11-20T03:09:18.061Z,14.8
2022-11-20T03:11:24.684Z,12.7
2022-11-20T03:13:30.000Z,11
2022-11-20T03:15:35.321Z,12.2
2022-11-20T03:17:40.667Z,12.2
2022-11-20T03:19:45.977Z,12.2
2022-11-20T03:21:54.424Z,11.3
2022-11-20T03:23:59.761Z,11
2022-11-20T03:26:05.107Z,11.7
2022-11-20T03:27:09.326Z,11.4
2022-11-20T03:29:14.670Z,9.1
2022-11-20T03:31:20.005Z,10.4
2022-11-20T03:33:25.318Z,8.8
2022-11-20T03:35:33.759Z,13
2022-11-20T03:41:49.786Z,9.8
2022-11-20T03:43:55.108Z,10.8
2022-11-20T03:46:00.440Z,9.7
2022-11-20T03:48:05.776Z,9.5
2022-11-20T03:50:14.222Z,11.8
2022-11-20T03:56:30.186Z,10.5
2022-11-20T03:58:35.509Z,9.4
2022-11-20T04:00:40.829Z,9.7
2022-11-20T04:02:46.154Z,11
2022-11-20T04:04:54.588Z,11.3
2022-11-20T04:06:59.954Z,10.5
2022-11-20T04:09:05.259Z,10.6
2022-11-20T04:11:10.559Z,10.4
2022-11-20T04:13:15.858Z,10.6
2022-11-20T04:15:21.168Z,9.5
2022-11-20T04:17:26.469Z,9.3
2022-11-20T04:19:34.895Z,11.4
2022-11-20T04:21:40.208Z,10.5
2022-11-20T04:23:45.530Z,10.1
2022-11-20T04:26:05.389Z,11
2022-11-20T04:28:10.707Z,11.9
2022-11-20T04:30:16.002Z,11
2022-11-20T04:32:24.434Z,14.3
2022-11-20T04:34:29.756Z,11.6
2022-11-20T04:36:35.051Z,11.2
2022-11-20T04:38:40.380Z,11.8
2022-11-20T04:40:45.694Z,10.7
2022-11-20T04:42:51.011Z,11.8
2022-11-20T04:44:56.301Z,12.2
2022-11-20T04:47:04.734Z,13.5
2022-11-20T04:49:10.042Z,11.2
2022-11-20T04:51:15.390Z,13
2022-11-20T04:53:20.698Z,11.4
2022-11-20T04:59:36.619Z,13.6
2022-11-20T05:01:45.254Z,13.5
2022-11-20T05:03:50.362Z,12.5
2022-11-20T05:05:55.696Z,9.9
2022-11-20T05:08:01.006Z,9
2022-11-20T05:10:06.321Z,10
2022-11-20T05:12:11.606Z,10
2022-11-20T05:14:16.924Z,9.4
2022-11-20T05:16:25.342Z,11.3
2022-11-20T05:18:30.697Z,9.1
2022-11-20T05:20:35.994Z,10.8
2022-11-20T05:21:40.201Z,12.4
2022-11-20T05:23:45.526Z,10.9
2022-11-20T05:25:54.646Z,9.2
2022-11-20T05:30:04.563Z,10.4
2022-11-20T05:34:15.175Z,12.5
2022-11-20T05:36:20.469Z,9.7
2022-11-20T05:38:25.766Z,9.9
2022-11-20T05:42:36.369Z,10.3
2022-11-20T05:48:55.431Z,10.2
2022-11-20T05:51:00.716Z,9.3
2022-11-20T05:53:06.022Z,12.6
2022-11-20T05:55:05.323Z,10.6
2022-11-20T05:59:19.336Z,11.1
2022-11-20T06:01:24.372Z,12.9
2022-11-20T06:03:29.659Z,11.4
2022-11-20T06:05:34.967Z,13
2022-11-20T06:07:40.321Z,11.6
2022-11-20T06:09:45.566Z,8.6
2022-11-20T06:11:50.877Z,8.1
2022-11-20T06:13:59.299Z,14
2022-11-20T06:16:04.640Z,10.3
2022-11-20T06:18:09.918Z,10.3
2022-11-20T06:19:14.108Z,10.1
2022-11-20T06:21:19.421Z,10
2022-11-20T06:23:24.717Z,9.9
2022-11-20T06:27:38.461Z,13.4
2022-11-20T06:29:43.751Z,11
2022-11-20T06:33:54.341Z,8.6
2022-11-20T06:36:00.433Z,10.6
2022-11-20T06:38:04.933Z,9.5
2022-11-20T06:40:10.251Z,10.7
2022-11-20T06:44:23.907Z,10.7
2022-11-20T06:46:29.226Z,9.2
2022-11-20T06:48:34.491Z,9.5
2022-11-20T06:50:39.774Z,10
2022-11-20T06:52:45.076Z,10.8
2022-11-20T06:54:50.367Z,8.5
2022-11-20T06:56:58.762Z,13.5
2022-11-20T06:59:04.044Z,11
2022-11-20T07:01:09.367Z,9.9
2022-11-20T07:07:25.262Z,9.5
2022-11-20T07:11:38.878Z,14.5
2022-11-20T07:13:44.170Z,12
2022-11-20T07:15:49.461Z,12.4
2022-11-20T07:16:53.667Z,14.1
2022-11-20T07:18:58.967Z,10.4
2022-11-20T07:21:04.244Z,14.3
2022-11-20T07:23:09.543Z,11.1
2022-11-20T07:25:17.921Z,12.1
2022-11-20T07:27:23.232Z,10.8
2022-11-20T07:29:28.511Z,11.9
2022-11-20T07:31:33.785Z,11.1
2022-11-20T07:33:39.091Z,12.7
2022-11-20T07:35:44.347Z,13
2022-11-20T07:37:49.664Z,12.1
2022-11-20T07:42:03.344Z,12.1
2022-11-20T07:44:08.645Z,12.2
2022-11-20T07:46:13.947Z,12.9
2022-11-20T07:48:19.236Z,10
2022-11-20T07:50:24.524Z,12.9
2022-11-20T07:54:38.230Z,11.2
2022-11-20T07:56:43.533Z,14.9
2022-11-20T07:58:48.836Z,13.9
2022-11-20T08:00:54.190Z,10.7
2022-11-20T08:05:04.766Z,11.8
2022-11-20T08:07:10.205Z,14.4
2022-11-20T08:09:18.770Z,13.7
2022-11-20T08:11:23.830Z,13.9
2022-11-20T08:13:29.141Z,14
2022-11-20T08:16:00.594Z,15.3
2022-11-20T08:18:30.157Z,14
2022-11-20T08:20:11.267Z,13.7
2022-11-20T08:22:19.732Z,16.9
2022-11-20T08:24:25.068Z,14.8
2022-11-20T08:26:30.393Z,13.5
2022-11-20T08:28:35.724Z,14.5
2022-11-20T08:30:41.104Z,13.9
2022-11-20T08:32:46.309Z,12.9
2022-11-20T08:37:00.134Z,15.4
2022-11-20T08:39:05.465Z,15.9
2022-11-20T08:47:26.932Z,13
2022-11-20T08:49:32.302Z,17.1
2022-11-20T08:55:51.542Z,15.1
2022-11-20T08:57:56.936Z,16.1
2022-11-20T09:00:06.715Z,16.3
2022-11-20T09:02:07.739Z,16.2
2022-11-20T09:04:13.130Z,16.7
2022-11-20T09:06:21.627Z,17
2022-11-20T09:08:27.031Z,15.2
2022-11-20T09:10:32.435Z,16.5
2022-11-20T09:11:38.334Z,16.6
2022-11-20T09:13:43.682Z,19.6
2022-11-20T09:15:49.092Z,15.5
2022-11-20T09:22:08.469Z,15.5
2022-11-20T09:24:13.906Z,16
2022-11-20T09:26:19.302Z,16.6
2022-11-20T09:28:24.726Z,15.1
2022-11-20T09:30:30.153Z,15.8
2022-11-20T09:34:44.168Z,20
2022-11-20T09:36:49.593Z,16.7
2022-11-20T09:38:55.052Z,15.2
2022-11-20T09:41:00.471Z,17.5
2022-11-20T09:45:11.413Z,17.1
2022-11-20T09:49:31.846Z,19.8
2022-11-20T09:51:30.923Z,16.4
2022-11-20T09:55:41.907Z,17.9
2022-11-20T09:57:47.392Z,18.5
2022-11-20T09:59:52.910Z,17
2022-11-20T10:01:58.413Z,18.7
2022-11-20T10:04:07.048Z,19.1
2022-11-20T10:06:12.580Z,18.1
2022-11-20T10:08:18.210Z,15.8
2022-11-20T10:09:22.838Z,16.5
2022-11-20T10:11:27.930Z,19.2
2022-11-20T10:13:33.484Z,18.3
2022-11-20T10:17:47.681Z,16
2022-11-20T10:19:53.247Z,16.2
2022-11-20T10:21:58.792Z,17.8
2022-11-20T10:24:04.341Z,16.2
2022-11-20T10:28:15.640Z,17.2
2022-11-20T10:34:35.307Z,17.1
2022-11-20T10:36:40.895Z,13.8
2022-11-20T10:38:46.465Z,14.9
2022-11-20T10:42:57.624Z,18
2022-11-20T10:45:06.337Z,16
2022-11-20T10:47:11.907Z,14.5
2022-11-20T10:49:17.477Z,16.9
2022-11-20T10:53:28.679Z,16
2022-11-20T10:55:34.301Z,14.6
2022-11-20T10:57:39.936Z,15.2
2022-11-20T10:59:45.509Z,15
2022-11-20T11:01:54.198Z,15.5
2022-11-20T11:03:59.834Z,14.9
2022-11-20T11:07:09.874Z,17.5
2022-11-20T11:09:15.411Z,16.2
2022-11-20T11:11:21.048Z,17.7
2022-11-20T11:13:26.628Z,18.1
2022-11-20T11:17:40.981Z,16.1
2022-11-20T11:19:46.606Z,16.3
2022-11-20T11:21:55.426Z,16.4
2022-11-20T11:26:03.469Z,14
2022-11-20T11:28:09.110Z,14.7
2022-11-20T11:30:17.804Z,18.2
2022-11-20T11:32:23.441Z,17.5
2022-11-20T11:34:29.030Z,13.8
2022-11-20T11:36:34.672Z,16.7
2022-11-20T11:38:40.267Z,14.5
2022-11-20T11:42:51.546Z,18.3
2022-11-20T11:45:00.275Z,16.3
2022-11-20T11:49:11.505Z,15.7
2022-11-20T11:59:42.745Z,18
2022-11-20T12:01:50.111Z,16.4
2022-11-20T12:03:54.016Z,16.3
2022-11-20T12:06:23.671Z,16
2022-11-20T12:08:29.315Z,17.5
2022-11-20T12:10:35.005Z,16.7
2022-11-20T12:12:43.725Z,17.3
2022-11-20T12:14:49.360Z,16.3
2022-11-20T12:16:55.001Z,18.4
2022-11-20T12:19:00.669Z,14.2
2022-11-20T12:21:06.340Z,16.9
2022-11-20T12:29:32.034Z,16
2022-11-20T12:31:37.720Z,15.5
2022-11-20T12:33:43.375Z,14.8
2022-11-20T12:35:49.049Z,14.3
2022-11-20T12:37:54.693Z,13.7
2022-11-20T12:40:00.345Z,18.3
2022-11-20T12:42:09.087Z,17.8
2022-11-20T12:44:14.776Z,16.1
2022-11-20T12:46:20.531Z,16.3
2022-11-20T12:50:32.589Z,15.9
2022-11-20T12:52:37.383Z,15.1
2022-11-20T12:54:43.049Z,14
2022-11-20T13:01:03.156Z,14.6
2022-11-20T13:02:07.472Z,18.4
2022-11-20T13:04:13.138Z,14.3
2022-11-20T13:06:18.799Z,12.9
2022-11-20T13:08:24.459Z,13.3
2022-11-20T13:10:33.210Z,13.1
2022-11-20T13:12:38.875Z,14.5
2022-11-20T13:14:44.508Z,12.5
2022-11-20T13:16:50.165Z,13.1
2022-11-20T13:18:55.815Z,13.7
2022-11-20T13:21:01.466Z,13.3
2022-11-20T13:23:07.112Z,14.2
2022-11-20T13:25:16.667Z,16.6
2022-11-20T13:27:21.463Z,15.7
2022-11-20T13:29:27.107Z,16.3
2022-11-20T13:31:32.727Z,14.7
2022-11-20T13:33:38.370Z,16.2
2022-11-20T13:35:43.976Z,15.1
2022-11-20T13:37:49.594Z,15.1
2022-11-20T13:39:58.289Z,18
2022-11-20T13:42:03.923Z,14.8
2022-11-20T13:44:09.559Z,16.5
2022-11-20T13:46:15.176Z,16
2022-11-20T13:48:20.798Z,16.2
2022-11-20T13:50:26.393Z,19.6
2022-11-20T13:52:32.051Z,16.4
2022-11-20T13:54:40.733Z,18
2022-11-20T13:56:46.383Z,17.3
2022-11-20T13:58:52.006Z,16.2
2022-11-20T13:59:56.423Z,18
2022-11-20T14:02:01.977Z,22
2022-11-20T14:04:07.657Z,16.3
2022-11-20T14:06:13.204Z,17.9
2022-11-20T14:08:21.910Z,19.7
2022-11-20T14:10:31.762Z,18.2
2022-11-20T14:12:33.145Z,19.4
2022-11-20T14:16:44.382Z,17.1
2022-11-20T14:18:50.007Z,18.1
2022-11-20T14:20:55.622Z,17.8
2022-11-20T14:23:04.340Z,19.4
2022-11-20T14:25:09.950Z,16.8
2022-11-20T14:27:15.560Z,18.4
2022-11-20T14:29:21.174Z,17.6
2022-11-20T14:31:26.803Z,18.6
2022-11-20T14:33:32.419Z,17.3
2022-11-20T14:35:38.033Z,18.9
2022-11-20T14:37:46.769Z,19.8
2022-11-20T14:39:52.350Z,21.2
2022-11-20T14:41:57.831Z,20.8
2022-11-20T14:44:03.444Z,17.5
2022-11-20T14:48:14.664Z,21.9
2022-11-20T14:50:20.299Z,19.8
2022-11-20T14:52:28.962Z,19.3
2022-11-20T14:54:34.578Z,20.4
2022-11-20T14:56:40.202Z,19.9
2022-11-20T14:59:50.207Z,21.8
2022-11-20T15:04:01.540Z,18.7
2022-11-20T15:06:10.129Z,21.8
2022-11-20T15:08:15.726Z,23.4
2022-11-20T15:10:21.339Z,19.8
2022-11-20T15:14:34.332Z,22.2
2022-11-20T15:16:39.748Z,21.6
2022-11-20T15:18:45.393Z,21.5
2022-11-20T15:20:54.062Z,20.4
2022-11-20T15:22:59.694Z,21.2
2022-11-20T15:25:05.330Z,22.7
2022-11-20T15:27:10.929Z,23
2022-11-20T15:29:16.549Z,23.6
2022-11-20T15:31:22.109Z,21.8
2022-11-20T15:35:36.425Z,22.7
2022-11-20T15:37:42.065Z,24.3
2022-11-20T15:41:53.281Z,22.1
2022-11-20T15:43:58.894Z,22.6
2022-11-20T15:46:04.516Z,23.6
2022-11-20T15:48:10.147Z,23.8
2022-11-20T15:50:18.828Z,26
2022-11-20T15:52:24.454Z,25.5
2022-11-20T15:54:30.034Z,24.8
2022-11-20T15:57:01.568Z,24.4
2022-11-20T15:59:07.164Z,25.1
2022-11-20T16:01:12.881Z,28.4
2022-11-20T16:03:21.531Z,27.4
2022-11-20T16:05:27.158Z,28.1
2022-11-20T16:07:32.787Z,26.8
2022-11-20T16:09:38.361Z,24
2022-11-20T16:11:43.955Z,28.4
2022-11-20T16:13:49.581Z,22.7
2022-11-20T16:15:55.214Z,25.4
2022-11-20T16:18:03.918Z,25.2
2022-11-20T16:20:09.560Z,28
2022-11-20T16:22:15.189Z,26.6
2022-11-20T16:24:21.222Z,24.3
2022-11-20T16:26:26.467Z,23.3
2022-11-20T16:28:32.098Z,26.2
2022-11-20T16:32:46.451Z,25.5
2022-11-20T16:34:52.094Z,23.5
2022-11-20T16:36:57.695Z,24.7
2022-11-20T16:39:03.365Z,26
2022-11-20T16:41:09.010Z,26.8
2022-11-20T16:43:14.633Z,25.3
2022-11-20T16:45:26.067Z,24.5
2022-11-20T16:47:28.983Z,27.8
2022-11-20T16:49:34.716Z,24.8
2022-11-20T16:51:40.272Z,23.5
2022-11-20T16:52:44.607Z,25
2022-11-20T16:54:50.340Z,29.8
2022-11-20T16:56:55.874Z,25.5
2022-11-20T16:59:01.529Z,23.4
2022-11-20T17:01:10.282Z,27
2022-11-20T17:03:15.904Z,26.5
2022-11-20T17:05:21.537Z,29.2
2022-11-20T17:09:32.791Z,27
2022-11-20T17:11:38.426Z,28.7
2022-11-20T17:13:44.058Z,25.8
2022-11-20T17:15:52.781Z,27.2
2022-11-20T17:17:58.405Z,26.7
2022-11-20T17:20:04.005Z,25.8
2022-11-20T17:22:09.644Z,27.8
2022-11-20T17:24:15.280Z,26.9
2022-11-20T17:26:20.877Z,23.8
2022-11-20T17:28:26.526Z,27.6
2022-11-20T17:30:35.235Z,27.8
2022-11-20T17:32:40.894Z,26.9
2022-11-20T17:34:46.482Z,26.8
2022-11-20T17:36:52.107Z,26.1
2022-11-20T17:38:57.744Z,30
2022-11-20T17:41:03.393Z,29
2022-11-20T17:43:09.009Z,27.3
2022-11-20T17:50:33.325Z,33.2
2022-11-20T17:52:38.945Z,29.9
2022-11-20T17:54:44.542Z,26.8
2022-11-20T17:56:50.192Z,29
2022-11-20T17:58:58.897Z,32
2022-11-20T18:01:04.564Z,34.8
2022-11-20T18:03:10.144Z,29.7
2022-11-20T18:05:15.770Z,31.7
2022-11-20T18:07:21.472Z,30.9
2022-11-20T18:11:32.651Z,34
2022-11-20T18:13:45.010Z,32.3
2022-11-20T18:15:46.986Z,30.1
2022-11-20T18:17:52.651Z,30.9
2022-11-20T18:22:03.937Z,29.2
2022-11-20T18:24:09.526Z,29.8
2022-11-20T18:26:15.140Z,31
2022-11-20T18:28:23.843Z,31
2022-11-20T18:30:29.484Z,32.4
2022-11-20T18:32:35.103Z,32.4
2022-11-20T18:34:40.731Z,31.5
2022-11-20T18:36:46.379Z,32.2
2022-11-20T18:38:52.006Z,29.2
2022-11-20T18:41:02.015Z,27.2
2022-11-20T18:43:06.355Z,32.5
2022-11-20T18:45:11.959Z,31.4
2022-11-20T18:47:17.617Z,33.2
2022-11-20T18:48:21.981Z,30.7
2022-11-20T18:50:27.572Z,32.2
2022-11-20T18:52:33.210Z,34.4
2022-11-20T18:54:38.930Z,29.6
2022-11-20T18:56:47.540Z,35.1
2022-11-20T18:58:54.589Z,33.3
2022-11-20T19:03:04.458Z,30.3
2022-11-20T19:07:15.815Z,34.5
2022-11-20T19:09:21.331Z,30.3
2022-11-20T19:11:30.037Z,33.2
2022-11-20T19:13:35.678Z,36.2
2022-11-20T19:15:41.336Z,33.4
2022-11-20T19:17:46.927Z,33.2
2022-11-20T19:19:52.545Z,35
2022-11-20T19:21:58.177Z,35.4
2022-11-20T19:24:03.821Z,29
2022-11-20T19:26:12.534Z,34
2022-11-20T19:28:18.170Z,37.4
2022-11-20T19:30:23.787Z,34.7
2022-11-20T19:32:29.402Z,31.8
2022-11-20T19:34:35.050Z,37.3
2022-11-20T19:36:44.554Z,32.2
2022-11-20T19:38:47.902Z,30.3
2022-11-20T19:40:55.035Z,33.9
2022-11-20T19:43:00.632Z,32.7
2022-11-20T19:45:06.296Z,30.6
2022-11-20T19:49:43.481Z,34.9
2022-11-20T19:51:49.155Z,33.5
2022-11-20T19:53:57.812Z,35.6
2022-11-20T19:56:03.435Z,30.8
2022-11-20T19:58:09.055Z,33
2022-11-20T20:00:17.254Z,34.8
2022-11-20T20:02:20.323Z,33.4
2022-11-20T20:04:25.957Z,35
2022-11-20T20:06:31.586Z,35.8
2022-11-20T20:08:40.281Z,32.6
2022-11-20T20:10:45.918Z,31.6
2022-11-20T20:12:51.551Z,32
2022-11-20T20:14:57.180Z,32.2
2022-11-20T20:17:02.800Z,27.9
2022-11-20T20:19:08.430Z,33
2022-11-20T20:21:14.060Z,31
2022-11-20T20:23:22.770Z,34.5
2022-11-20T20:25:28.400Z,33.3
2022-11-20T20:27:34.026Z,35.5
2022-11-20T20:29:39.661Z,31.5
2022-11-20T20:31:45.284Z,31.4
2022-11-20T20:33:50.898Z,33.4
2022-11-20T20:35:56.532Z,30
2022-11-20T20:38:05.266Z,32.1
2022-11-20T20:40:14.967Z,29.3
2022-11-20T20:42:16.486Z,29.3
2022-11-20T20:43:20.820Z,28.8
2022-11-20T20:45:26.456Z,27.5
2022-11-20T20:47:32.078Z,27
2022-11-20T20:49:37.732Z,28.6
2022-11-20T20:51:46.412Z,31
2022-11-20T20:53:52.054Z,29.9
2022-11-20T20:55:57.668Z,26.8
2022-11-20T20:58:03.302Z,27.8
2022-11-20T21:00:08.995Z,28
2022-11-20T21:02:14.676Z,26
2022-11-20T21:04:20.206Z,26
2022-11-20T21:06:28.896Z,30.3
2022-11-20T21:08:36.994Z,26.6
2022-11-20T21:10:40.152Z,26
2022-11-20T21:12:45.775Z,28.7
2022-11-20T21:14:51.429Z,30.2
2022-11-20T21:21:12.944Z,29.7
2022-11-20T21:23:18.578Z,27.7
2022-11-20T21:25:24.187Z,27.3
2022-11-20T21:27:29.829Z,26.4
2022-11-20T21:29:35.460Z,27
2022-11-20T21:31:41.100Z,25.8
2022-11-20T21:33:46.682Z,28.2
2022-11-20T21:35:55.389Z,28
2022-11-20T21:38:01.050Z,27.9
2022-11-20T21:40:06.670Z,25.5
2022-11-20T21:41:11.034Z,27.5
2022-11-20T21:43:16.667Z,25.1
2022-11-20T21:45:22.272Z,26.3
2022-11-20T21:47:27.887Z,29.5
2022-11-20T21:49:36.619Z,25.9
2022-11-20T21:51:42.221Z,24.2
2022-11-20T21:53:47.867Z,22.5
2022-11-20T21:55:53.492Z,26.5
2022-11-20T21:57:59.117Z,24.4
2022-11-20T22:00:04.754Z,21.6
2022-11-20T22:02:10.442Z,24.4
2022-11-20T22:04:19.073Z,26.1
2022-11-20T22:06:24.691Z,25.8
2022-11-20T22:08:30.322Z,24.3
2022-11-20T22:10:35.998Z,23.4
2022-11-20T22:12:41.552Z,25.2
2022-11-20T22:14:47.179Z,24.8
2022-11-20T22:16:52.792Z,26.1
2022-11-20T22:19:01.488Z,24
2022-11-20T22:21:07.096Z,25.3
2022-11-20T22:23:12.713Z,23.8
2022-11-20T22:25:18.333Z,23.7
2022-11-20T22:29:29.550Z,23.7
2022-11-20T22:31:35.171Z,25.3
2022-11-20T22:35:49.513Z,24.3
2022-11-20T22:37:55.096Z,24.6
2022-11-20T22:38:59.436Z,23.7
2022-11-20T22:41:05.035Z,25.7
2022-11-20T22:43:10.663Z,22.9
2022-11-20T22:45:16.273Z,24.5
2022-11-20T22:49:30.598Z,24.9
2022-11-20T22:51:36.198Z,27.8
2022-11-20T22:53:41.828Z,24.2
2022-11-20T22:55:47.459Z,24
2022-11-20T22:57:53.111Z,24.9
2022-11-20T23:02:07.416Z,26
2022-11-20T23:04:13.037Z,26.5
2022-11-20T23:08:24.277Z,21.9
2022-11-20T23:14:41.119Z,26.3
2022-11-20T23:16:49.823Z,23.7
2022-11-20T23:18:55.421Z,24.4
2022-11-20T23:21:01.041Z,26
2022-11-20T23:23:06.665Z,24
2022-11-20T23:25:12.296Z,25
2022-11-20T23:27:19.648Z,23.8
2022-11-20T23:29:23.575Z,23
2022-11-20T23:31:32.201Z,26.4
2022-11-20T23:33:37.806Z,22.9
2022-11-20T23:38:14.972Z,24.9
2022-11-20T23:40:20.572Z,26.9
2022-11-20T23:42:26.212Z,25.7
2022-11-20T23:44:34.851Z,25.1
2022-11-20T23:46:40.477Z,23.9
2022-11-20T23:48:46.120Z,24.7
2022-11-20T23:50:51.731Z,23
2022-11-20T23:52:57.330Z,23.9
2022-11-20T23:55:02.948Z,24.6
2022-11-20T23:57:08.598Z,20.2
2022-11-20T23:59:17.227Z,22.9
